Time;durP1;ratioP1;P1;durP2;ratioP2;P2;SDS_P1;SDS_P2;PMS_P1;PMS_P2;Temp;Humidity;BMP_temperature;BMP_pressure;BME280_temperature;BME280_humidity;BME280_pressure;Samples;Min_cycle;Max_cycle;Signal;HPM_P1;HPM_P2
2023/07/10 00:01:25;;;;;;;7.78;4.13;;;19.70;99.90;;;;;;5014919;28;20052;-79
2023/07/10 00:03:51;;;;;;;9.43;4.00;;;19.60;99.90;;;;;;5032743;28;20025;-81
2023/07/10 00:06:17;;;;;;;9.45;3.85;;;19.60;99.90;;;;;;5015068;28;20025;-80
2023/07/10 00:08:44;;;;;;;8.13;4.30;;;19.60;99.90;;;;;;5032262;28;20030;-80
2023/07/10 00:11:28;;;;;;;9.85;5.20;;;19.70;99.90;;;;;;5032369;28;20021;-79
2023/07/10 00:13:55;;;;;;;9.73;4.47;;;19.70;99.90;;;;;;5011258;28;20359;-81
2023/07/10 00:16:22;;;;;;;9.57;4.30;;;19.70;99.90;;;;;;5032142;28;20022;-79
2023/07/10 00:18:49;;;;;;;8.77;4.72;;;19.60;99.90;;;;;;5032624;28;20113;-80
2023/07/10 00:21:15;;;;;;;9.57;4.05;;;19.60;99.90;;;;;;5014995;28;20367;-80
2023/07/10 00:23:40;;;;;;;9.68;4.85;;;19.60;99.90;;;;;;5006283;28;20038;-80
2023/07/10 00:26:18;;;;;;;10.20;4.10;;;19.60;99.90;;;;;;5000184;28;20091;-80
2023/07/10 00:28:43;;;;;;;10.57;4.68;;;19.50;99.90;;;;;;5021468;28;20037;-78
2023/07/10 00:31:12;;;;;;;7.78;4.55;;;19.40;99.90;;;;;;5015936;28;20079;-78
2023/07/10 00:33:38;;;;;;;9.20;5.35;;;19.40;99.90;;;;;;5023581;28;20025;-82
2023/07/10 00:36:25;;;;;;;8.57;4.65;;;19.40;99.90;;;;;;5000580;28;20026;-78
2023/07/10 00:38:51;;;;;;;8.93;4.85;;;19.40;99.90;;;;;;5014186;28;20052;-80
2023/07/10 00:41:17;;;;;;;9.68;5.15;;;19.40;99.90;;;;;;5007998;28;20030;-80
2023/07/10 00:43:55;;;;;;;8.05;5.20;;;19.30;99.90;;;;;;5032253;28;20121;-78
2023/07/10 00:46:27;;;;;;;7.88;4.57;;;19.30;99.90;;;;;;4991643;28;20105;-79
2023/07/10 00:49:06;;;;;;;8.00;4.20;;;19.30;99.90;;;;;;5015473;28;20033;-80
2023/07/10 00:51:56;;;;;;;10.38;5.03;;;19.20;99.90;;;;;;5031996;28;20018;-77
2023/07/10 00:54:31;;;;;;;13.23;4.28;;;19.20;99.90;;;;;;5029796;28;20030;-80
2023/07/10 00:56:59;;;;;;;8.20;4.65;;;19.20;99.90;;;;;;5027098;28;20022;-78
2023/07/10 00:59:27;;;;;;;9.57;4.65;;;19.30;99.90;;;;;;5032001;28;20017;-78
2023/07/10 01:02:08;;;;;;;8.60;4.38;;;19.20;99.90;;;;;;5031730;28;20523;-80
2023/07/10 01:04:35;;;;;;;9.15;4.32;;;19.20;99.90;;;;;;5031950;28;20116;-80
2023/07/10 01:07:08;;;;;;;12.40;4.65;;;19.20;99.90;;;;;;4998598;28;20029;-79
2023/07/10 01:09:36;;;;;;;7.22;4.63;;;19.20;99.90;;;;;;5006647;28;20083;-80
2023/07/10 01:12:05;;;;;;;8.98;5.07;;;19.10;99.90;;;;;;5014136;28;20053;-80
2023/07/10 01:14:36;;;;;;;6.57;4.00;;;19.10;99.90;;;;;;5031616;28;20028;-80
2023/07/10 01:17:07;;;;;;;9.02;4.47;;;19.10;99.90;;;;;;5006815;28;20482;-80
2023/07/10 01:19:35;;;;;;;6.30;4.00;;;19.10;99.90;;;;;;5017230;28;20129;-80
2023/07/10 01:22:01;;;;;;;8.82;4.13;;;19.10;99.90;;;;;;5020041;28;20083;-81
2023/07/10 01:24:29;;;;;;;8.13;4.43;;;19.10;99.90;;;;;;5026935;28;20034;-79
2023/07/10 01:26:57;;;;;;;6.22;3.78;;;19.00;99.90;;;;;;5031712;28;20502;-78
2023/07/10 01:29:36;;;;;;;10.38;4.15;;;19.00;99.90;;;;;;5001208;28;20034;-81
2023/07/10 01:32:04;;;;;;;7.85;4.10;;;19.00;99.90;;;;;;5013936;28;20159;-80
2023/07/10 01:34:38;;;;;;;6.43;4.40;;;19.00;99.90;;;;;;5014831;28;20025;-80
2023/07/10 01:37:05;;;;;;;8.75;4.50;;;18.90;99.90;;;;;;5025670;28;20043;-80
2023/07/10 01:39:58;;;;;;;11.73;4.80;;;18.90;99.90;;;;;;5008215;28;20461;-77
2023/07/10 01:42:24;;;;;;;7.68;4.25;;;18.90;99.90;;;;;;5008434;28;20103;-81
2023/07/10 01:44:50;;;;;;;9.95;4.25;;;18.90;99.90;;;;;;5013603;28;20068;-78
2023/07/10 01:47:18;;;;;;;10.05;5.05;;;18.80;99.90;;;;;;5033343;28;20024;-80
2023/07/10 01:49:58;;;;;;;6.65;4.07;;;18.80;99.90;;;;;;5017538;28;20034;-80
2023/07/10 01:52:25;;;;;;;8.88;4.60;;;18.80;99.90;;;;;;5010934;28;20076;-80
2023/07/10 01:54:51;;;;;;;13.43;4.97;;;18.70;99.90;;;;;;5028853;28;20034;-80
2023/07/10 01:57:18;;;;;;;11.55;4.38;;;18.70;99.90;;;;;;5034795;28;20028;-80
2023/07/10 01:59:44;;;;;;;8.77;4.07;;;18.70;99.90;;;;;;5017629;28;20021;-77
2023/07/10 02:02:10;;;;;;;6.90;4.10;;;18.70;99.90;;;;;;5028830;28;20112;-80
2023/07/10 02:04:39;;;;;;;7.53;4.05;;;18.70;99.90;;;;;;4999989;28;20454;-77
2023/07/10 02:07:05;;;;;;;12.10;4.30;;;18.70;99.90;;;;;;5008372;28;20033;-78
2023/07/10 02:09:32;;;;;;;8.70;5.05;;;18.60;99.90;;;;;;5034749;28;20026;-80
2023/07/10 02:11:58;;;;;;;11.40;4.57;;;18.60;99.90;;;;;;5019164;28;20120;-77
2023/07/10 02:14:24;;;;;;;11.07;4.70;;;18.50;99.90;;;;;;5034708;28;20030;-80
2023/07/10 02:16:50;;;;;;;8.60;4.20;;;18.50;99.90;;;;;;5034940;28;20044;-78
2023/07/10 02:19:18;;;;;;;10.48;4.50;;;18.50;99.90;;;;;;5034318;28;20513;-79
2023/07/10 02:21:43;;;;;;;8.95;4.18;;;18.50;99.90;;;;;;5034084;28;20025;-78
2023/07/10 02:24:09;;;;;;;12.48;4.80;;;18.50;99.90;;;;;;5016108;28;20105;-79
2023/07/10 02:26:35;;;;;;;12.27;5.20;;;18.50;99.90;;;;;;4980174;28;20100;-79
2023/07/10 02:29:01;;;;;;;9.85;4.45;;;18.50;99.90;;;;;;4996513;28;20436;-78
2023/07/10 02:31:27;;;;;;;7.28;4.00;;;18.50;99.90;;;;;;5015069;28;20018;-79
2023/07/10 02:33:54;;;;;;;5.57;3.55;;;18.50;99.90;;;;;;5013342;28;20041;-77
2023/07/10 02:36:22;;;;;;;8.88;4.45;;;18.40;99.90;;;;;;5015037;28;20030;-79
2023/07/10 02:38:47;;;;;;;10.05;4.60;;;18.40;99.90;;;;;;5014871;28;20034;-79
2023/07/10 02:41:14;;;;;;;8.80;3.75;;;18.50;99.90;;;;;;5014154;28;20100;-80
2023/07/10 02:43:39;;;;;;;10.70;5.45;;;18.50;99.90;;;;;;5006455;28;20029;-79
2023/07/10 02:46:05;;;;;;;8.02;4.32;;;18.50;99.90;;;;;;5033026;28;20461;-79
2023/07/10 02:48:31;;;;;;;8.65;3.85;;;18.50;99.90;;;;;;5016053;28;20083;-78
2023/07/10 02:50:57;;;;;;;7.10;4.35;;;18.50;99.90;;;;;;4999253;28;20033;-79
2023/07/10 02:53:23;;;;;;;10.05;4.65;;;18.50;99.90;;;;;;5015571;28;20034;-78
2023/07/10 02:55:49;;;;;;;9.77;4.88;;;18.50;99.90;;;;;;5016790;28;20132;-78
2023/07/10 02:58:15;;;;;;;10.50;4.30;;;18.40;99.90;;;;;;5015843;28;20049;-81
2023/07/10 03:00:41;;;;;;;7.93;5.20;;;18.40;99.90;;;;;;5033403;28;20440;-78
2023/07/10 03:03:07;;;;;;;8.98;4.40;;;18.40;99.90;;;;;;5015782;28;20033;-79
2023/07/10 03:05:34;;;;;;;11.75;5.60;;;18.30;99.90;;;;;;5016341;28;20638;-78
2023/07/10 03:07:59;;;;;;;12.77;5.90;;;18.30;99.90;;;;;;5033965;28;20036;-80
2023/07/10 03:10:25;;;;;;;11.60;5.50;;;18.40;99.90;;;;;;5033471;28;20042;-79
2023/07/10 03:12:52;;;;;;;8.25;4.82;;;18.40;99.90;;;;;;5033407;28;20057;-80
2023/07/10 03:15:18;;;;;;;10.68;5.32;;;18.40;99.90;;;;;;5015988;28;20030;-79
2023/07/10 03:17:46;;;;;;;10.95;5.55;;;18.40;99.90;;;;;;5015852;28;20375;-79
2023/07/10 03:20:12;;;;;;;10.80;5.93;;;18.40;99.90;;;;;;5033441;28;20363;-78
2023/07/10 03:22:38;;;;;;;9.68;5.65;;;18.50;99.90;;;;;;5033246;28;20039;-79
2023/07/10 03:25:05;;;;;;;11.43;5.88;;;18.50;99.90;;;;;;5014399;28;20398;-78
2023/07/10 03:27:30;;;;;;;12.20;5.93;;;18.50;99.90;;;;;;5033167;28;20033;-78
2023/07/10 03:29:56;;;;;;;10.55;5.78;;;18.60;99.90;;;;;;5015857;28;20451;-78
2023/07/10 03:32:22;;;;;;;14.52;6.75;;;18.70;99.90;;;;;;5033446;28;20029;-80
2023/07/10 03:34:51;;;;;;;16.73;6.55;;;18.70;99.90;;;;;;5033257;28;20049;-80
2023/07/10 03:37:17;;;;;;;15.38;5.85;;;18.80;99.90;;;;;;5033350;28;20486;-80
2023/07/10 03:39:42;;;;;;;15.32;6.78;;;18.90;99.90;;;;;;5033025;28;20041;-78
2023/07/10 03:42:08;;;;;;;12.43;6.45;;;19.00;99.90;;;;;;5032732;28;20402;-80
2023/07/10 03:44:34;;;;;;;12.77;5.68;;;19.10;99.90;;;;;;5033042;28;20033;-80
2023/07/10 03:47:00;;;;;;;10.85;5.20;;;19.20;99.90;;;;;;5033336;28;20025;-80
2023/07/10 03:49:26;;;;;;;10.43;5.75;;;19.40;99.90;;;;;;5033116;28;20029;-79
2023/07/10 03:51:52;;;;;;;12.73;5.60;;;19.80;99.90;;;;;;5025659;28;20407;-79
2023/07/10 03:54:18;;;;;;;10.88;6.57;;;20.30;99.90;;;;;;4996047;28;20065;-80
2023/07/10 03:56:44;;;;;;;12.75;6.28;;;20.60;99.90;;;;;;5025644;28;20026;-80
2023/07/10 03:59:10;;;;;;;19.05;7.85;;;21.20;99.90;;;;;;5013263;28;20026;-77
2023/07/10 04:01:36;;;;;;;13.73;7.13;;;21.40;99.90;;;;;;5012763;28;20048;-75
2023/07/10 04:04:02;;;;;;;16.05;6.78;;;21.90;99.90;;;;;;5008622;28;20023;-76
2023/07/10 04:06:29;;;;;;;13.77;5.47;;;22.30;99.90;;;;;;5010068;28;20044;-76
2023/07/10 04:08:58;;;;;;;10.82;5.43;;;22.50;99.90;;;;;;5032981;28;20061;-78
2023/07/10 04:11:25;;;;;;;14.80;5.63;;;23.00;99.50;;;;;;5031198;28;20501;-78
2023/07/10 04:13:51;;;;;;;8.55;4.32;;;23.30;97.10;;;;;;5032757;28;20519;-77
2023/07/10 04:16:22;;;;;;;13.13;4.50;;;23.70;96.50;;;;;;5032182;28;20109;-78
2023/07/10 04:18:51;;;;;;;13.67;4.57;;;23.70;95.40;;;;;;5032472;28;20083;-77
2023/07/10 04:21:23;;;;;;;9.45;4.45;;;24.10;95.10;;;;;;5004931;28;20021;-76
2023/07/10 04:23:49;;;;;;;;;;;24.10;94.20;;;;;;5030221;28;20095;-77
2023/07/10 04:26:27;;;;;;;7.32;4.82;;;24.60;93.80;;;;;;5014866;28;19922;-77
2023/07/10 04:28:55;;;;;;;9.75;4.35;;;24.90;94.00;;;;;;5031672;28;20278;-79
2023/07/10 04:31:23;;;;;;;10.75;4.72;;;25.30;93.50;;;;;;5032338;28;20022;-80
2023/07/10 04:33:50;;;;;;;10.32;4.53;;;25.30;93.30;;;;;;5032527;28;20048;-81
2023/07/10 04:36:18;;;;;;;13.50;4.90;;;25.50;92.80;;;;;;5032136;28;20034;-76
2023/07/10 04:38:44;;;;;;;8.00;4.50;;;25.80;92.90;;;;;;5032689;28;20036;-78
2023/07/10 04:41:15;;;;;;;20.20;5.13;;;25.80;92.70;;;;;;5032121;28;20094;-78
2023/07/10 04:43:41;;;;;;;11.60;4.78;;;26.00;92.60;;;;;;5032165;28;20384;-79
2023/07/10 04:46:10;;;;;;;13.15;4.65;;;25.90;92.20;;;;;;5031549;28;20033;-79
2023/07/10 04:48:36;;;;;;;14.73;5.45;;;26.30;92.20;;;;;;5025259;28;20032;-76
2023/07/10 04:51:04;;;;;;;9.65;4.50;;;26.80;92.00;;;;;;5014447;28;20115;-80
2023/07/10 04:53:32;;;;;;;9.30;5.15;;;26.70;91.70;;;;;;5032005;28;20035;-80
2023/07/10 04:56:00;;;;;;;12.02;4.80;;;26.80;91.20;;;;;;5032048;28;20086;-77
2023/07/10 04:58:27;;;;;;;10.88;4.60;;;27.30;90.80;;;;;;5032030;28;20037;-79
2023/07/10 05:00:58;;;;;;;11.00;4.72;;;27.20;91.10;;;;;;5032469;28;20479;-80
2023/07/10 05:03:25;;;;;;;15.83;5.57;;;27.00;91.30;;;;;;5027742;28;20091;-79
2023/07/10 05:05:58;;;;;;;15.60;9.43;;;25.90;91.40;;;;;;5014195;28;20259;-80
2023/07/10 05:08:26;;;;;;;21.42;12.57;;;25.20;91.50;;;;;;5024167;28;20037;-81
2023/07/10 05:10:54;;;;;;;27.05;20.25;;;24.90;92.50;;;;;;5031476;28;20026;-78
2023/07/10 05:13:25;;;;;;;22.27;14.18;;;24.60;92.50;;;;;;5032108;28;20033;-79
2023/07/10 05:15:52;;;;;;;15.48;7.47;;;24.50;92.90;;;;;;5009410;28;20080;-81
2023/07/10 05:18:18;;;;;;;15.25;6.20;;;24.30;92.80;;;;;;5012685;28;20452;-80
2023/07/10 05:20:46;;;;;;;17.10;6.43;;;24.20;93.50;;;;;;5019065;28;20494;-81
2023/07/10 05:23:13;;;;;;;10.88;5.57;;;24.40;93.90;;;;;;5019484;28;20052;-81
2023/07/10 05:25:39;;;;;;;16.95;5.50;;;24.30;93.40;;;;;;5022428;28;20054;-81
2023/07/10 05:28:05;;;;;;;12.35;5.05;;;24.60;94.10;;;;;;5015899;28;20026;-77
2023/07/10 05:30:31;;;;;;;9.70;4.75;;;24.60;94.90;;;;;;5015744;28;20487;-77
2023/07/10 05:32:56;;;;;;;11.02;4.95;;;24.50;93.70;;;;;;5018585;28;20065;-80
2023/07/10 05:35:23;;;;;;;12.88;5.05;;;24.40;94.50;;;;;;5016412;28;20439;-77
2023/07/10 05:37:58;;;;;;;8.43;4.63;;;24.70;94.70;;;;;;5024522;28;20029;-77
2023/07/10 05:40:24;;;;;;;11.55;4.47;;;24.90;95.20;;;;;;5003496;28;20044;-79
2023/07/10 05:42:50;;;;;;;8.10;4.60;;;25.20;94.70;;;;;;5017695;28;20480;-77
2023/07/10 05:45:15;;;;;;;10.13;4.68;;;25.20;94.50;;;;;;5019909;28;20441;-79
2023/07/10 05:47:41;;;;;;;14.57;4.55;;;25.60;94.30;;;;;;5015453;28;20034;-78
2023/07/10 05:50:07;;;;;;;10.18;4.53;;;25.70;94.00;;;;;;5019996;28;20379;-79
2023/07/10 05:52:33;;;;;;;10.13;5.22;;;25.80;94.50;;;;;;5029055;28;20018;-78
2023/07/10 05:54:59;;;;;;;11.48;5.20;;;26.10;94.60;;;;;;5015432;28;20037;-80
2023/07/10 05:57:25;;;;;;;12.80;5.38;;;25.90;94.30;;;;;;5015516;28;20523;-79
2023/07/10 05:59:50;;;;;;;10.23;5.13;;;26.00;94.10;;;;;;5015653;28;20030;-77
2023/07/10 06:02:16;;;;;;;15.13;4.50;;;26.40;94.10;;;;;;5016186;28;20049;-78
2023/07/10 06:04:42;;;;;;;8.85;5.30;;;26.50;92.20;;;;;;5009379;28;20027;-82
2023/07/10 06:07:08;;;;;;;12.73;4.63;;;26.50;92.90;;;;;;5007307;28;20100;-81
2023/07/10 06:09:34;;;;;;;13.02;4.85;;;26.40;92.90;;;;;;5014961;28;20041;-77
2023/07/10 06:12:00;;;;;;;7.53;4.32;;;26.30;92.80;;;;;;5015006;28;20480;-80
2023/07/10 06:14:26;;;;;;;13.23;5.60;;;26.40;93.70;;;;;;5015893;28;20030;-77
2023/07/10 06:16:52;;;;;;;8.73;4.68;;;26.50;93.30;;;;;;5032554;28;20029;-79
2023/07/10 06:19:18;;;;;;;9.82;4.78;;;26.60;92.30;;;;;;5026574;28;20025;-78
2023/07/10 06:21:46;;;;;;;11.70;5.15;;;26.80;92.60;;;;;;5018184;28;20389;-80
2023/07/10 06:24:12;;;;;;;12.70;4.68;;;27.10;92.50;;;;;;5025038;28;20030;-79
2023/07/10 06:26:38;;;;;;;12.65;5.57;;;27.30;92.70;;;;;;5019657;28;20523;-79
2023/07/10 06:29:04;;;;;;;13.02;5.22;;;27.50;92.50;;;;;;5034026;28;20072;-77
2023/07/10 06:31:30;;;;;;;11.65;4.90;;;27.40;91.50;;;;;;5002461;28;20026;-82
2023/07/10 06:33:56;;;;;;;12.15;4.82;;;27.20;91.80;;;;;;5010358;28;20026;-80
2023/07/10 06:36:22;;;;;;;9.45;4.30;;;27.50;92.00;;;;;;5013918;28;20033;-82
2023/07/10 06:38:51;;;;;;;11.85;5.55;;;27.30;91.80;;;;;;5014688;28;20022;-77
2023/07/10 06:41:17;;;;;;;7.82;4.78;;;27.60;92.60;;;;;;5029784;28;20041;-79
2023/07/10 06:43:43;;;;;;;11.45;5.28;;;27.90;91.10;;;;;;5024946;28;20406;-79
2023/07/10 06:46:08;;;;;;;8.68;4.80;;;27.90;91.30;;;;;;5034193;28;20104;-82
2023/07/10 06:48:34;;;;;;;10.20;5.93;;;28.20;91.80;;;;;;5034685;28;20080;-80
2023/07/10 06:51:00;;;;;;;15.38;5.50;;;28.30;91.10;;;;;;5035814;28;20021;-79
2023/07/10 06:53:26;;;;;;;8.95;5.50;;;28.30;92.00;;;;;;5033901;28;20036;-80
2023/07/10 06:55:58;;;;;;;8.70;5.05;;;28.20;91.60;;;;;;5034155;28;20104;-82
2023/07/10 06:58:24;;;;;;;11.88;4.93;;;28.30;90.80;;;;;;5035055;28;20037;-78
2023/07/10 07:00:51;;;;;;;12.68;5.35;;;28.60;91.20;;;;;;5034037;28;20043;-81
2023/07/10 07:03:17;;;;;;;10.30;4.93;;;28.50;90.60;;;;;;5034002;28;20458;-81
2023/07/10 07:05:43;;;;;;;10.05;4.50;;;28.80;90.70;;;;;;5035452;28;20029;-77
2023/07/10 07:08:10;;;;;;;9.65;5.60;;;28.60;90.20;;;;;;5034114;28;20033;-80
2023/07/10 07:10:40;;;;;;;10.63;5.38;;;28.80;90.30;;;;;;5033796;28;20021;-80
2023/07/10 07:13:06;;;;;;;13.25;4.78;;;28.80;90.50;;;;;;5030342;28;20071;-79
2023/07/10 07:15:32;;;;;;;8.15;4.78;;;28.80;91.00;;;;;;5033569;28;20053;-80
2023/07/10 07:17:58;;;;;;;9.15;4.63;;;29.10;90.50;;;;;;5033699;28;20030;-82
2023/07/10 07:20:24;;;;;;;8.07;4.70;;;29.00;90.20;;;;;;5034143;28;20026;-78
2023/07/10 07:22:49;;;;;;;11.88;5.10;;;29.20;91.00;;;;;;5033762;28;20489;-81
2023/07/10 07:25:21;;;;;;;8.75;4.55;;;29.30;91.30;;;;;;5032555;28;20145;-77
2023/07/10 07:27:47;;;;;;;9.05;5.15;;;29.60;88.80;;;;;;5032799;28;20407;-79
2023/07/10 07:30:13;;;;;;;8.75;4.53;;;29.60;90.80;;;;;;5033590;28;20029;-78
2023/07/10 07:32:45;;;;;;;9.13;4.93;;;29.60;89.40;;;;;;5020329;28;20033;-78
2023/07/10 07:35:11;;;;;;;8.82;4.85;;;29.70;90.10;;;;;;5033467;28;20034;-79
2023/07/10 07:37:37;;;;;;;9.48;4.72;;;;;;;;;;5034914;28;20038;-77
2023/07/10 07:40:06;;;;;;;9.90;5.25;;;29.90;88.10;;;;;;5031710;28;20032;-81
2023/07/10 07:42:32;;;;;;;7.78;4.63;;;29.80;90.50;;;;;;5030582;28;20486;-78
2023/07/10 07:44:58;;;;;;;8.68;4.57;;;29.80;89.40;;;;;;5032663;28;20037;-78
2023/07/10 07:47:27;;;;;;;10.02;4.55;;;29.80;90.30;;;;;;5030302;28;20029;-81
2023/07/10 07:49:53;;;;;;;20.48;5.40;;;29.90;89.50;;;;;;5032091;28;20036;-80
2023/07/10 07:52:19;;;;;;;9.27;4.88;;;30.00;89.40;;;;;;5030408;28;20105;-79
2023/07/10 07:54:45;;;;;;;10.10;4.90;;;30.10;88.20;;;;;;5037035;28;20021;-76
2023/07/10 07:57:11;;;;;;;14.27;5.10;;;30.10;89.70;;;;;;5034105;28;20022;-77
2023/07/10 07:59:37;;;;;;;16.40;5.38;;;30.40;90.90;;;;;;5014810;28;20089;-80
2023/07/10 08:02:08;;;;;;;9.75;5.05;;;30.60;90.60;;;;;;5027057;28;20029;-78
2023/07/10 08:04:34;;;;;;;7.90;4.50;;;30.60;90.90;;;;;;5023587;28;20022;-78
2023/07/10 08:07:06;;;;;;;10.07;4.85;;;30.80;90.50;;;;;;5031314;28;20041;-78
2023/07/10 08:09:32;;;;;;;8.20;4.57;;;30.80;91.00;;;;;;5032766;28;20151;-78
2023/07/10 08:11:57;;;;;;;12.25;5.88;;;31.00;90.70;;;;;;5015284;28;20124;-80
2023/07/10 08:14:23;;;;;;;9.90;5.40;;;30.80;90.10;;;;;;5032852;28;20025;-82
2023/07/10 08:16:49;;;;;;;13.95;5.43;;;30.70;88.70;;;;;;5031632;28;20103;-79
2023/07/10 08:19:15;;;;;;;13.57;6.03;;;30.70;90.50;;;;;;5033163;28;20025;-78
2023/07/10 08:21:40;;;;;;;11.52;5.20;;;30.80;89.80;;;;;;5031810;28;20022;-77
2023/07/10 08:24:06;;;;;;;11.77;5.03;;;30.70;88.30;;;;;;5032686;28;20033;-80
2023/07/10 08:26:32;;;;;;;13.18;5.90;;;30.80;88.90;;;;;;5031073;28;20111;-80
2023/07/10 08:29:18;;;;;;;10.63;5.20;;;30.80;90.00;;;;;;5032652;28;20083;-82
2023/07/10 08:31:43;;;;;;;12.50;5.13;;;30.90;86.20;;;;;;5032524;28;20445;-79
2023/07/10 08:34:09;;;;;;;11.77;5.57;;;31.00;90.90;;;;;;5032517;28;20025;-78
2023/07/10 08:36:35;;;;;;;10.80;5.45;;;31.20;94.10;;;;;;5032102;28;20364;-78
2023/07/10 08:39:01;;;;;;;14.32;6.10;;;;;;;;;;5028200;28;20078;-79
2023/07/10 08:41:27;;;;;;;12.48;5.75;;;31.20;90.00;;;;;;5032623;28;20029;-81
2023/07/10 08:43:53;;;;;;;19.38;5.97;;;31.30;90.90;;;;;;5032495;28;20405;-78
2023/07/10 08:46:22;;;;;;;11.90;5.65;;;31.20;90.00;;;;;;5030449;28;20101;-82
2023/07/10 08:48:59;;;;;;;17.90;5.03;;;31.40;90.30;;;;;;5031912;28;20026;-81
2023/07/10 08:51:37;;;;;;;12.23;5.65;;;;;;;;;;5032476;28;20041;-80
2023/07/10 08:54:21;;;;;;;11.90;5.75;;;31.60;93.70;;;;;;5032047;28;20463;-80
2023/07/10 08:57:24;;;;;;;16.35;6.32;;;31.50;92.70;;;;;;5031880;28;20025;-81
2023/07/10 09:00:04;;;;;;;13.02;5.38;;;31.60;90.10;;;;;;5032266;28;20406;-81
2023/07/10 09:02:34;;;;;;;15.57;5.22;;;;;;;;;;5009655;28;20057;-80
2023/07/10 09:05:04;;;;;;;10.40;5.68;;;31.50;90.60;;;;;;5032152;28;20430;-78
2023/07/10 09:07:34;;;;;;;12.02;4.57;;;;;;;;;;5013193;28;20021;-79
2023/07/10 09:10:03;;;;;;;10.77;4.80;;;31.80;88.70;;;;;;5028685;28;20018;-79
2023/07/10 09:12:40;;;;;;;9.13;4.60;;;31.80;90.10;;;;;;5032253;28;20041;-79
2023/07/10 09:15:20;;;;;;;9.57;5.03;;;;;;;;;;5018382;28;20026;-79
2023/07/10 09:17:54;;;;;;;9.65;4.80;;;32.20;88.40;;;;;;5025417;28;20026;-77
2023/07/10 09:20:22;;;;;;;8.73;5.03;;;;;;;;;;5011605;28;20033;-79
2023/07/10 09:22:57;;;;;;;10.52;4.72;;;32.10;88.50;;;;;;5014625;28;20153;-79
2023/07/10 09:25:24;;;;;;;13.02;5.00;;;32.20;89.50;;;;;;4996590;28;20483;-78
2023/07/10 09:27:50;;;;;;;8.77;4.25;;;32.30;88.90;;;;;;5010748;28;20030;-78
2023/07/10 09:30:42;;;;;;;12.00;4.47;;;32.20;84.90;;;;;;5008494;28;20060;-81
2023/07/10 09:33:09;;;;;;;6.93;4.07;;;32.20;86.90;;;;;;5010363;28;20055;-79
2023/07/10 09:35:39;;;;;;;8.25;4.30;;;32.00;86.10;;;;;;5010834;28;20021;-78
2023/07/10 09:38:08;;;;;;;13.80;4.63;;;32.20;87.10;;;;;;5013090;28;20029;-80
2023/07/10 09:40:43;;;;;;;10.93;4.50;;;32.00;90.30;;;;;;5010425;28;20038;-77
2023/07/10 09:43:14;;;;;;;8.55;4.30;;;31.90;90.00;;;;;;5033912;28;20356;-77
2023/07/10 09:45:44;;;;;;;6.57;4.38;;;32.10;90.40;;;;;;5031864;28;20053;-81
2023/07/10 09:48:14;;;;;;;9.40;4.57;;;32.20;90.20;;;;;;5031708;28;20037;-78
2023/07/10 09:50:46;;;;;;;9.00;4.30;;;32.30;91.10;;;;;;5031933;28;20021;-77
2023/07/10 09:53:22;;;;;;;;;;;32.10;91.70;;;;;;5032147;28;20121;-79
2023/07/10 09:55:48;;;;;;;7.78;4.13;;;32.40;90.50;;;;;;5031478;28;19913;-80
2023/07/10 09:58:14;;;;;;;11.25;5.18;;;;;;;;;;5032104;28;20048;-78
2023/07/10 10:00:45;;;;;;;7.57;4.53;;;32.40;90.20;;;;;;5032620;28;20041;-77
2023/07/10 10:03:16;;;;;;;11.80;4.40;;;;;;;;;;5026000;28;20069;-81
2023/07/10 10:05:42;;;;;;;7.90;3.97;;;32.60;98.90;;;;;;5024872;28;20337;-76
2023/07/10 10:08:32;;;;;;;7.55;4.13;;;32.40;98.90;;;;;;5013793;28;20163;-77
2023/07/10 10:11:11;;;;;;;19.45;4.18;;;32.30;98.90;;;;;;5020289;28;20395;-77
2023/07/10 10:13:56;;;;;;;11.02;4.50;;;32.30;96.90;;;;;;5019327;28;20546;-79
2023/07/10 10:16:48;;;;;;;8.13;4.22;;;32.50;97.20;;;;;;5014322;28;20411;-77
2023/07/10 10:19:18;;;;;;;5.97;3.72;;;32.40;97.60;;;;;;5021602;28;20037;-78
2023/07/10 10:21:44;;;;;;;6.07;3.83;;;32.20;96.20;;;;;;5020660;28;20060;-78
2023/07/10 10:24:13;;;;;;;7.38;3.83;;;32.10;96.20;;;;;;5027288;28;20058;-77
2023/07/10 10:27:12;;;;;;;9.10;4.47;;;32.20;96.50;;;;;;5022834;28;20039;-79
2023/07/10 10:30:10;;;;;;;6.30;3.40;;;32.30;98.00;;;;;;5014242;28;20056;-78
2023/07/10 10:32:49;;;;;;;6.97;3.88;;;32.50;95.10;;;;;;4955602;28;20062;-79
2023/07/10 10:35:27;;;;;;;7.53;3.63;;;32.60;96.20;;;;;;4953153;28;20083;-79
2023/07/10 10:38:02;;;;;;;7.32;4.03;;;32.50;96.30;;;;;;4953991;28;20404;-80
2023/07/10 10:40:40;;;;;;;6.95;4.00;;;32.50;97.20;;;;;;4955427;28;20035;-77
2023/07/10 10:43:27;;;;;;;5.45;3.45;;;32.30;95.60;;;;;;4974607;28;20258;-81
2023/07/10 10:46:19;;;;;;;6.78;3.13;;;32.50;96.40;;;;;;4970179;28;20445;-79
2023/07/10 10:48:57;;;;;;;8.52;3.35;;;;;;;;;;4976161;28;20046;-79
2023/07/10 10:51:35;;;;;;;5.35;3.70;;;;;;;;;;4976582;28;20085;-79
2023/07/10 10:54:28;;;;;;;7.07;3.97;;;32.80;84.40;;;;;;4963490;28;20022;-76
2023/07/10 10:57:12;;;;;;;5.90;3.97;;;32.70;83.00;;;;;;4961309;28;20036;-80
2023/07/10 10:59:51;;;;;;;5.53;3.33;;;32.50;80.30;;;;;;4974134;28;20062;-80
2023/07/10 11:02:31;;;;;;;5.97;2.88;;;32.70;79.10;;;;;;4975229;28;20599;-78
2023/07/10 11:05:37;;;;;;;4.65;2.85;;;32.70;78.90;;;;;;4966387;28;20107;-80
2023/07/10 11:08:06;;;;;;;6.32;3.70;;;;;;;;;;4981391;28;20041;-78
2023/07/10 11:10:37;;;;;;;7.97;3.50;;;;;;;;;;5023902;28;20075;-78
2023/07/10 11:13:16;;;;;;;;;;;33.10;80.40;;;;;;5027219;28;20029;-81
2023/07/10 11:15:42;;;;;;;9.05;3.63;;;33.10;85.20;;;;;;5025922;28;19917;-78
2023/07/10 11:18:12;;;;;;;8.15;3.92;;;32.70;89.00;;;;;;5022244;28;20064;-78
2023/07/10 11:20:39;;;;;;;7.70;3.43;;;;;;;;;;5019719;28;20596;-77
2023/07/10 11:23:10;;;;;;;6.07;3.90;;;33.00;82.70;;;;;;5034034;28;20030;-79
2023/07/10 11:25:39;;;;;;;8.93;3.65;;;33.00;81.30;;;;;;5034266;28;20514;-80
2023/07/10 11:28:17;;;;;;;6.18;3.42;;;33.00;83.40;;;;;;5034816;28;20386;-77
2023/07/10 11:30:43;;;;;;;9.25;3.78;;;33.00;83.70;;;;;;5035055;28;20033;-82
2023/07/10 11:33:22;;;;;;;13.73;4.10;;;32.90;96.80;;;;;;5029429;28;20069;-77
2023/07/10 11:36:13;;;;;;;5.53;2.90;;;;;;;;;;5003345;28;20065;-78
2023/07/10 11:39:09;;;;;;;9.88;3.45;;;33.00;82.70;;;;;;5016335;28;20136;-78
2023/07/10 11:41:44;;;;;;;13.85;4.25;;;33.30;81.50;;;;;;5034482;28;20021;-82
2023/07/10 11:44:28;;;;;;;7.18;3.40;;;32.90;79.80;;;;;;5033933;28;20068;-81
2023/07/10 11:46:57;;;;;;;8.07;3.30;;;32.80;81.90;;;;;;5033562;28;20025;-82
2023/07/10 11:49:25;;;;;;;5.70;3.60;;;32.90;81.10;;;;;;5025523;28;20029;-83
2023/07/10 11:52:10;;;;;;;6.65;3.03;;;32.70;82.10;;;;;;5034731;28;20483;-83
2023/07/10 11:54:48;;;;;;;7.13;3.47;;;32.90;81.40;;;;;;5038888;28;20025;-77
2023/07/10 11:57:23;;;;;;;6.93;3.50;;;32.90;83.00;;;;;;5028972;28;20056;-83
2023/07/10 11:59:50;;;;;;;6.03;3.30;;;32.90;81.70;;;;;;5019038;28;20509;-79
2023/07/10 12:02:52;;;;;;;8.07;3.53;;;32.90;83.40;;;;;;5030449;28;20041;-80
2023/07/10 12:05:19;;;;;;;;;;;32.90;80.00;;;;;;5017566;28;20061;-82
2023/07/10 12:07:56;;;;;;;5.95;3.15;;;32.90;82.40;;;;;;5021912;28;19927;-78
2023/07/10 12:10:25;;;;;;;9.23;3.70;;;32.90;80.50;;;;;;5020984;28;20026;-76
2023/07/10 12:12:54;;;;;;;7.40;3.90;;;33.00;82.10;;;;;;5003200;28;20038;-80
2023/07/10 12:15:23;;;;;;;9.52;3.03;;;33.10;82.80;;;;;;5019661;28;20022;-80
2023/07/10 12:17:53;;;;;;;5.15;2.95;;;33.10;82.90;;;;;;5016329;28;20028;-78
2023/07/10 12:20:22;;;;;;;6.72;2.97;;;33.10;83.30;;;;;;5012234;28;20017;-79
2023/07/10 12:23:14;;;;;;;6.25;3.85;;;33.30;83.60;;;;;;5020359;28;20026;-81
2023/07/10 12:25:51;;;;;;;6.68;3.72;;;33.30;83.80;;;;;;5014608;28;20136;-77
2023/07/10 12:28:22;;;;;;;6.35;3.25;;;33.20;82.20;;;;;;5023172;28;20032;-77
2023/07/10 12:30:50;;;;;;;6.18;3.13;;;33.00;82.90;;;;;;5031008;28;20033;-82
2023/07/10 12:33:39;;;;;;;6.90;3.47;;;33.10;85.30;;;;;;5042516;28;20045;-85
2023/07/10 12:36:24;;;;;;;13.25;3.20;;;32.90;81.30;;;;;;5035599;28;20061;-79
2023/07/10 12:38:51;;;;;;;6.47;3.92;;;33.10;86.40;;;;;;5025536;28;20116;-85
2023/07/10 12:41:19;;;;;;;9.60;3.53;;;33.20;85.00;;;;;;5034826;28;20032;-79
2023/07/10 12:43:53;;;;;;;4.30;3.05;;;32.90;83.90;;;;;;5022731;28;20045;-80
2023/07/10 12:46:30;;;;;;;7.00;3.42;;;33.00;86.20;;;;;;5033829;28;20017;-83
2023/07/10 12:49:10;;;;;;;7.25;3.85;;;33.10;82.20;;;;;;5033338;28;20079;-82
2023/07/10 12:51:39;;;;;;;8.32;3.50;;;33.20;81.80;;;;;;4979552;28;20044;-83
2023/07/10 12:54:25;;;;;;;6.70;3.63;;;33.00;82.00;;;;;;5009097;28;20029;-78
2023/07/10 12:56:53;;;;;;;8.85;3.38;;;32.90;84.40;;;;;;5017546;28;20064;-77
2023/07/10 12:59:24;;;;;;;8.95;4.00;;;33.10;80.80;;;;;;5015037;28;20029;-82
2023/07/10 13:02:01;;;;;;;5.47;3.40;;;33.20;82.30;;;;;;5035583;28;20498;-80
2023/07/10 13:04:31;;;;;;;7.75;4.60;;;33.10;84.80;;;;;;5008093;28;20028;-78